createdAt,value
2019-01-11T00:01:23.361Z,21.53
2019-01-11T00:03:54.361Z,21.37
2019-01-11T00:06:25.242Z,21.47
2019-01-11T00:08:56.035Z,21.60
2019-01-11T00:11:26.803Z,21.07
2019-01-11T00:13:57.535Z,20.97
2019-01-11T00:16:28.331Z,21.07
2019-01-11T00:18:59.850Z,19.20
2019-01-11T00:21:30.489Z,19.23
2019-01-11T00:24:01.113Z,20.67
2019-01-11T00:26:31.699Z,19.20
2019-01-11T00:29:02.341Z,20.50
2019-01-11T00:31:33.339Z,19.90
2019-01-11T00:34:04.299Z,20.43
2019-01-11T00:36:34.928Z,20.77
2019-01-11T00:39:08.220Z,23.90
2019-01-11T00:41:38.859Z,21.83
2019-01-11T00:44:09.570Z,22.50
2019-01-11T00:46:40.618Z,21.33
2019-01-11T00:49:13.604Z,22.37
2019-01-11T00:51:43.533Z,22.70
2019-01-11T00:54:14.998Z,21.03
2019-01-11T00:56:45.578Z,21.93
2019-01-11T00:59:16.222Z,23.33
2019-01-11T01:01:46.971Z,23.10
2019-01-11T01:04:17.851Z,21.50
2019-01-11T01:06:48.542Z,23.47
2019-01-11T01:09:19.109Z,23.73
2019-01-11T01:11:49.878Z,22.43
2019-01-11T01:14:20.506Z,22.03
2019-01-11T01:16:51.129Z,22.53
2019-01-11T01:19:22.161Z,22.27
2019-01-11T01:21:52.789Z,21.67
2019-01-11T01:24:23.408Z,21.10
2019-01-11T01:26:54.153Z,21.93
2019-01-11T01:29:25.088Z,20.53
2019-01-11T01:31:55.633Z,20.20
2019-01-11T01:34:26.252Z,19.53
2019-01-11T01:36:56.809Z,20.60
2019-01-11T01:39:27.390Z,20.53
2019-01-11T01:41:58.090Z,20.37
2019-01-11T01:44:28.779Z,19.83
2019-01-11T01:46:59.398Z,19.77
2019-01-11T01:49:30.009Z,20.17
2019-01-11T01:52:00.663Z,18.53
2019-01-11T01:54:31.430Z,18.63
2019-01-11T01:57:02.093Z,18.53
2019-01-11T01:59:32.685Z,19.57
2019-01-11T02:02:03.369Z,19.17
2019-01-11T02:04:34.378Z,18.00
2019-01-11T02:07:04.948Z,17.00
2019-01-11T02:09:35.573Z,17.17
2019-01-11T02:12:06.128Z,16.63
2019-01-11T02:14:36.683Z,16.00
2019-01-11T02:17:07.318Z,15.50
2019-01-11T02:19:37.881Z,16.43
2019-01-11T02:22:08.579Z,15.13
2019-01-11T02:24:39.343Z,14.53
2019-01-11T02:27:09.980Z,14.63
2019-01-11T02:29:40.615Z,15.03
2019-01-11T02:32:11.368Z,14.30
2019-01-11T02:34:41.932Z,14.50
2019-01-11T02:37:12.609Z,13.57
2019-01-11T02:39:43.249Z,13.33
2019-01-11T02:42:14.249Z,14.10
2019-01-11T02:44:44.930Z,12.50
2019-01-11T02:47:15.549Z,13.67
2019-01-11T02:49:46.689Z,13.97
2019-01-11T02:52:17.260Z,12.93
2019-01-11T02:54:47.859Z,13.93
2019-01-11T02:57:18.491Z,13.03
2019-01-11T02:59:49.151Z,12.87
2019-01-11T03:02:19.951Z,12.10
2019-01-11T03:04:50.602Z,11.70
2019-01-11T03:07:21.287Z,11.67
2019-01-11T03:09:51.910Z,10.73
2019-01-11T03:12:22.482Z,11.93
2019-01-11T03:14:53.109Z,10.83
2019-01-11T03:17:23.792Z,12.13
2019-01-11T03:19:54.417Z,10.67
2019-01-11T03:22:25.012Z,11.27
2019-01-11T03:24:55.618Z,11.10
2019-01-11T03:27:26.250Z,11.73
2019-01-11T03:29:56.859Z,11.17
2019-01-11T03:32:27.419Z,10.90
2019-01-11T03:35:16.848Z,11.23
2019-01-11T03:37:51.028Z,11.10
2019-01-11T03:40:26.612Z,12.53
2019-01-11T03:42:57.362Z,11.30
2019-01-11T03:45:28.004Z,11.13
2019-01-11T03:47:58.680Z,12.13
2019-01-11T03:50:29.268Z,14.07
2019-01-11T03:52:59.812Z,12.00
2019-01-11T03:55:30.350Z,12.47
2019-01-11T03:58:00.907Z,14.93
2019-01-11T04:00:31.604Z,11.80
2019-01-11T04:03:02.188Z,12.83
2019-01-11T04:05:32.822Z,12.90
2019-01-11T04:08:03.427Z,15.07
2019-01-11T04:10:33.969Z,15.33
2019-01-11T04:13:04.622Z,16.17
2019-01-11T04:15:35.428Z,20.30
2019-01-11T04:18:25.130Z,20.73
2019-01-11T04:20:57.104Z,16.23
2019-01-11T04:23:27.886Z,14.97
2019-01-11T04:25:58.778Z,14.50
2019-01-11T04:28:29.481Z,15.77
2019-01-11T04:31:00.188Z,14.90
2019-01-11T04:33:30.912Z,17.70
2019-01-11T04:36:01.370Z,16.43
2019-01-11T04:38:32.137Z,15.30
2019-01-11T04:41:02.696Z,16.40
2019-01-11T04:43:33.257Z,15.67
2019-01-11T04:46:03.864Z,17.90
2019-01-11T04:48:34.411Z,19.70
2019-01-11T04:51:05.289Z,21.77
2019-01-11T04:53:35.802Z,23.47
2019-01-11T04:56:06.540Z,24.47
2019-01-11T04:58:37.037Z,22.67
2019-01-11T05:01:07.659Z,21.37
2019-01-11T05:03:38.390Z,28.13
2019-01-11T05:06:08.950Z,24.70
2019-01-11T05:08:40.854Z,19.53
2019-01-11T05:11:11.437Z,19.67
2019-01-11T05:13:44.280Z,17.80
2019-01-11T05:16:15.036Z,18.20
2019-01-11T05:18:45.527Z,18.07
2019-01-11T05:21:16.227Z,15.70
2019-01-11T05:23:46.789Z,15.17
2019-01-11T05:26:17.390Z,14.40
2019-01-11T05:28:48.018Z,14.90
2019-01-11T05:31:18.785Z,15.80
2019-01-11T05:33:49.591Z,16.03
2019-01-11T05:36:20.317Z,16.63
2019-01-11T05:38:51.350Z,15.20
2019-01-11T05:41:21.959Z,14.40
2019-01-11T05:43:52.519Z,13.20
2019-01-11T05:46:23.194Z,12.47
2019-01-11T05:48:54.506Z,12.50
2019-01-11T05:51:24.985Z,14.27
2019-01-11T05:53:55.672Z,21.80
2019-01-11T05:56:26.347Z,19.93
2019-01-11T05:59:01.714Z,18.37
2019-01-11T06:01:32.369Z,16.50
2019-01-11T06:04:05.302Z,15.33
2019-01-11T06:06:54.795Z,14.37
2019-01-11T06:09:25.689Z,16.20
2019-01-11T06:11:56.259Z,18.30
2019-01-11T06:14:26.869Z,18.53
2019-01-11T06:16:57.481Z,17.03
2019-01-11T06:19:28.267Z,21.93
2019-01-11T06:21:58.741Z,19.10
2019-01-11T06:24:29.339Z,22.27
2019-01-11T06:26:59.978Z,22.60
2019-01-11T06:29:30.576Z,23.93
2019-01-11T06:32:01.278Z,19.80
2019-01-11T06:34:31.872Z,17.13
2019-01-11T06:37:02.511Z,25.03
2019-01-11T06:39:33.189Z,16.30
2019-01-11T06:42:13.687Z,16.60
2019-01-11T06:44:44.291Z,17.50
2019-01-11T06:47:14.979Z,17.93
2019-01-11T06:49:45.607Z,18.67
2019-01-11T06:52:16.177Z,20.23
2019-01-11T06:54:46.812Z,19.63
2019-01-11T06:57:17.650Z,18.57
2019-01-11T06:59:48.318Z,17.47
2019-01-11T07:02:19.075Z,21.20
2019-01-11T07:04:50.037Z,20.70
2019-01-11T07:07:20.739Z,23.20
2019-01-11T07:09:51.629Z,24.37
2019-01-11T07:12:23.202Z,24.70
2019-01-11T07:14:53.848Z,23.13
2019-01-11T07:17:24.639Z,20.00
2019-01-11T07:19:55.298Z,21.20
2019-01-11T07:22:26.098Z,22.73
2019-01-11T07:24:56.808Z,20.33
2019-01-11T07:27:29.109Z,19.37
2019-01-11T07:29:59.974Z,15.50
2019-01-11T07:32:30.539Z,14.27
2019-01-11T07:35:01.149Z,13.27
2019-01-11T07:37:31.844Z,11.70
2019-01-11T07:40:02.690Z,11.53
2019-01-11T07:42:33.230Z,12.23
2019-01-11T07:45:03.959Z,12.47
2019-01-11T07:47:34.705Z,13.60
2019-01-11T07:50:06.168Z,12.87
2019-01-11T07:52:36.849Z,13.60
2019-01-11T07:55:08.649Z,13.47
2019-01-11T07:57:39.257Z,14.57
2019-01-11T08:00:10.833Z,11.97
2019-01-11T08:02:42.095Z,12.10
2019-01-11T08:05:13.413Z,11.03
2019-01-11T08:07:44.028Z,9.90
2019-01-11T08:10:14.878Z,10.43
2019-01-11T08:12:45.769Z,9.93
2019-01-11T08:15:17.297Z,12.03
2019-01-11T08:17:47.923Z,12.30
2019-01-11T08:20:18.628Z,15.03
2019-01-11T08:22:49.188Z,11.60
2019-01-11T08:25:19.731Z,10.37
2019-01-11T08:27:50.493Z,10.17
2019-01-11T08:30:21.196Z,10.63
2019-01-11T08:32:51.780Z,10.57
2019-01-11T08:35:22.738Z,10.33
2019-01-11T08:37:53.313Z,10.13
2019-01-11T08:40:23.877Z,11.40
2019-01-11T08:42:54.448Z,10.87
2019-01-11T08:45:25.328Z,10.07
2019-01-11T08:47:55.960Z,9.60
2019-01-11T08:50:26.572Z,10.53
2019-01-11T08:52:57.623Z,12.57
2019-01-11T08:55:29.297Z,13.43
2019-01-11T08:57:59.936Z,12.07
2019-01-11T09:00:30.533Z,12.80
2019-01-11T09:03:01.165Z,10.90
2019-01-11T09:05:31.697Z,10.20
2019-01-11T09:08:02.251Z,9.00
2019-01-11T09:10:32.981Z,8.90
2019-01-11T09:13:03.433Z,9.67
2019-01-11T09:15:34.342Z,10.07
2019-01-11T09:18:15.719Z,10.93
2019-01-11T09:20:46.434Z,12.20
2019-01-11T09:23:17.209Z,12.53
2019-01-11T09:25:47.881Z,12.20
2019-01-11T09:28:18.413Z,11.63
2019-01-11T09:30:49.067Z,9.37
2019-01-11T09:33:20.721Z,8.10
2019-01-11T09:35:51.443Z,8.80
2019-01-11T09:38:22.259Z,7.67
2019-01-11T09:40:52.795Z,8.80
2019-01-11T09:43:23.318Z,7.00
2019-01-11T09:45:53.929Z,6.77
2019-01-11T09:48:24.470Z,5.37
2019-01-11T09:50:55.002Z,5.17
2019-01-11T09:53:25.727Z,4.03
2019-01-11T09:55:56.282Z,5.13
2019-01-11T09:58:26.977Z,5.00
2019-01-11T10:00:59.246Z,5.23
2019-01-11T10:03:29.964Z,5.00
2019-01-11T10:06:00.782Z,5.67
2019-01-11T10:08:31.414Z,5.23
2019-01-11T10:11:02.144Z,5.30
2019-01-11T10:13:32.808Z,5.97
2019-01-11T10:16:03.384Z,6.20
2019-01-11T10:18:33.930Z,5.40
2019-01-11T10:21:04.937Z,5.57
2019-01-11T10:23:35.497Z,4.80
2019-01-11T10:26:07.483Z,5.30
2019-01-11T10:28:38.141Z,6.60
2019-01-11T10:31:08.652Z,5.03
2019-01-11T10:33:39.245Z,5.23
2019-01-11T10:36:09.918Z,6.00
2019-01-11T10:38:40.519Z,5.50
2019-01-11T10:41:11.257Z,6.17
2019-01-11T10:43:41.796Z,6.77
2019-01-11T10:46:32.282Z,6.73
2019-01-11T10:49:02.881Z,7.13
2019-01-11T10:51:33.451Z,6.67
2019-01-11T10:54:04.202Z,5.50
2019-01-11T10:56:35.198Z,6.77
2019-01-11T10:59:06.073Z,6.60
2019-01-11T11:01:36.589Z,6.40
2019-01-11T11:04:07.268Z,6.53
2019-01-11T11:06:37.910Z,7.40
2019-01-11T11:09:09.684Z,7.10
2019-01-11T11:11:40.378Z,7.17
2019-01-11T11:14:11.069Z,6.77
2019-01-11T11:16:41.903Z,5.80
2019-01-11T11:19:12.515Z,5.60
2019-01-11T11:21:43.126Z,5.50
2019-01-11T11:24:13.722Z,6.40
2019-01-11T11:26:44.331Z,5.87
2019-01-11T11:29:14.900Z,6.80
2019-01-11T11:31:45.637Z,6.70
2019-01-11T11:34:16.672Z,6.30
2019-01-11T11:36:47.126Z,6.13
2019-01-11T11:39:17.941Z,6.23
2019-01-11T11:41:48.569Z,6.70
2019-01-11T11:44:19.268Z,5.83
2019-01-11T11:46:49.870Z,6.10
2019-01-11T11:49:20.547Z,5.83
2019-01-11T11:51:51.108Z,5.00
2019-01-11T11:54:21.677Z,5.67
2019-01-11T11:56:52.268Z,6.40
2019-01-11T11:59:22.796Z,6.83
2019-01-11T12:01:53.310Z,6.47
2019-01-11T12:04:23.898Z,6.30
2019-01-11T12:06:54.590Z,7.43
2019-01-11T12:09:25.553Z,5.83
2019-01-11T12:11:56.073Z,5.90
2019-01-11T12:14:26.638Z,6.47
2019-01-11T12:16:57.332Z,6.07
2019-01-11T12:19:27.899Z,5.20
2019-01-11T12:22:01.751Z,6.10
2019-01-11T12:24:30.812Z,9.70
2019-01-11T12:27:01.519Z,5.97
2019-01-11T12:29:32.177Z,10.73
2019-01-11T12:32:02.631Z,11.77
2019-01-11T12:34:33.172Z,11.73
2019-01-11T12:37:03.756Z,14.30
2019-01-11T12:39:34.377Z,11.23
2019-01-11T12:42:05.059Z,13.50
2019-01-11T12:44:36.426Z,14.93
2019-01-11T12:47:07.188Z,12.73
2019-01-11T12:49:37.798Z,11.73
2019-01-11T12:52:08.427Z,11.17
2019-01-11T12:54:39.096Z,9.30
2019-01-11T12:57:09.628Z,9.27
2019-01-11T12:59:40.692Z,8.17
2019-01-11T13:02:11.279Z,8.67
2019-01-11T13:04:42.148Z,10.00
2019-01-11T13:07:12.953Z,8.43
2019-01-11T13:09:43.427Z,9.27
2019-01-11T13:12:14.107Z,8.27
2019-01-11T13:14:44.839Z,9.13
2019-01-11T13:17:15.960Z,10.87
2019-01-11T13:19:48.232Z,9.03
2019-01-11T13:22:19.008Z,10.03
2019-01-11T13:24:49.965Z,10.60
2019-01-11T13:27:20.511Z,10.67
2019-01-11T13:29:51.097Z,9.43
2019-01-11T13:32:21.774Z,11.73
2019-01-11T13:34:52.380Z,10.97
2019-01-11T13:37:22.912Z,10.57
2019-01-11T13:39:53.732Z,9.67
2019-01-11T13:42:24.278Z,11.07
2019-01-11T13:44:54.904Z,12.20
2019-01-11T13:47:25.739Z,13.23
2019-01-11T13:49:56.260Z,12.60
2019-01-11T13:52:26.808Z,14.43
2019-01-11T13:54:57.323Z,15.67
2019-01-11T13:57:27.959Z,11.70
2019-01-11T13:59:58.575Z,11.67
2019-01-11T14:02:29.499Z,13.30
2019-01-11T14:05:00.223Z,13.00
2019-01-11T14:07:31.789Z,14.00
2019-01-11T14:10:02.250Z,12.57
2019-01-11T14:12:32.808Z,12.37
2019-01-11T14:15:03.618Z,13.30
2019-01-11T14:17:34.679Z,14.40
2019-01-11T14:20:06.229Z,9.73
2019-01-11T14:22:36.966Z,13.47
2019-01-11T14:25:08.238Z,14.77
2019-01-11T14:27:38.938Z,15.63
2019-01-11T14:30:10.759Z,15.30
2019-01-11T14:32:41.420Z,13.70
2019-01-11T14:35:12.475Z,14.50
2019-01-11T14:37:43.130Z,16.83
2019-01-11T14:40:15.831Z,13.23
2019-01-11T14:42:46.889Z,15.57
2019-01-11T14:45:18.669Z,16.97
2019-01-11T14:47:49.908Z,17.57
2019-01-11T14:50:21.562Z,17.43
2019-01-11T14:52:52.518Z,20.17
2019-01-11T14:55:23.130Z,20.03
2019-01-11T14:57:53.811Z,18.17
2019-01-11T15:00:25.399Z,18.90
2019-01-11T15:02:56.069Z,18.03
2019-01-11T15:05:26.787Z,15.17
2019-01-11T15:07:57.500Z,12.33
2019-01-11T15:10:28.349Z,14.17
2019-01-11T15:12:59.128Z,9.37
2019-01-11T15:15:29.778Z,14.00
2019-01-11T15:18:00.618Z,15.80
2019-01-11T15:20:31.248Z,14.80
2019-01-11T15:23:02.972Z,14.57
2019-01-11T15:25:33.982Z,15.17
2019-01-11T15:28:04.576Z,14.47
2019-01-11T15:30:35.231Z,11.87
2019-01-11T15:33:05.931Z,15.37
2019-01-11T15:35:36.638Z,15.57
2019-01-11T15:38:08.258Z,17.97
2019-01-11T15:40:39.009Z,21.50
2019-01-11T15:43:09.619Z,16.07
2019-01-11T15:45:40.270Z,14.17
2019-01-11T15:48:17.907Z,17.37
2019-01-11T15:50:58.064Z,14.10
2019-01-11T15:53:37.995Z,16.47
2019-01-11T15:56:12.379Z,19.60
2019-01-11T15:58:43.208Z,17.60
2019-01-11T16:01:13.868Z,17.63
2019-01-11T16:03:45.407Z,18.90
2019-01-11T16:06:29.884Z,20.57
2019-01-11T16:10:00.640Z,13.93
2019-01-11T16:13:17.290Z,16.80
2019-01-11T16:16:22.107Z,18.83
2019-01-11T16:18:55.308Z,18.37
2019-01-11T16:21:25.937Z,21.40
2019-01-11T16:23:56.648Z,21.80
2019-01-11T16:26:27.271Z,20.90
2019-01-11T16:28:58.233Z,21.80
2019-01-11T16:31:28.800Z,18.80
2019-01-11T16:33:59.639Z,25.00
2019-01-11T16:36:30.238Z,19.10
2019-01-11T16:39:01.069Z,21.73
2019-01-11T16:41:31.672Z,20.50
2019-01-11T16:44:02.393Z,17.53
2019-01-11T16:46:33.012Z,23.53
2019-01-11T16:49:03.801Z,18.73
2019-01-11T16:51:34.402Z,25.13
2019-01-11T16:54:05.049Z,22.63
2019-01-11T16:56:35.673Z,25.90
2019-01-11T16:59:07.475Z,24.67
2019-01-11T17:01:38.229Z,23.80
2019-01-11T17:04:09.338Z,23.27
2019-01-11T17:06:40.268Z,23.57
2019-01-11T17:09:11.581Z,22.07
2019-01-11T17:11:42.290Z,27.00
2019-01-11T17:14:13.102Z,28.17
2019-01-11T17:16:43.858Z,23.60
2019-01-11T17:19:14.488Z,21.30
2019-01-11T17:21:45.368Z,22.47
2019-01-11T17:24:16.973Z,22.97
2019-01-11T17:26:47.951Z,22.30
2019-01-11T17:29:18.629Z,19.40
2019-01-11T17:31:49.431Z,20.33
2019-01-11T17:34:20.240Z,16.77
2019-01-11T17:36:50.980Z,21.33
2019-01-11T17:39:21.723Z,21.50
2019-01-11T17:41:52.544Z,21.67
2019-01-11T17:44:23.213Z,23.20
2019-01-11T17:46:54.889Z,22.07
2019-01-11T17:49:25.464Z,24.37
2019-01-11T17:51:56.292Z,24.50
2019-01-11T17:54:26.868Z,27.03
2019-01-11T17:56:57.692Z,23.57
2019-01-11T17:59:28.302Z,24.60
2019-01-11T18:01:58.854Z,27.20
2019-01-11T18:04:29.371Z,28.07
2019-01-11T18:07:00.108Z,28.20
2019-01-11T18:09:30.798Z,26.20
2019-01-11T18:12:01.700Z,28.83
2019-01-11T18:14:32.535Z,25.87
2019-01-11T18:17:04.637Z,27.03
2019-01-11T18:19:39.647Z,28.60
2019-01-11T18:22:16.018Z,29.13
2019-01-11T18:24:47.035Z,29.60
2019-01-11T18:27:17.812Z,25.30
2019-01-11T18:29:50.779Z,26.47
2019-01-11T18:32:21.569Z,27.67
2019-01-11T18:34:55.511Z,30.33
2019-01-11T18:37:28.118Z,31.03
2019-01-11T18:39:58.541Z,29.27
2019-01-11T18:42:30.438Z,29.90
2019-01-11T18:45:01.103Z,30.57
2019-01-11T18:47:34.193Z,32.73
2019-01-11T18:50:08.498Z,34.37
2019-01-11T18:52:39.258Z,34.53
2019-01-11T18:55:11.529Z,33.50
2019-01-11T18:57:42.362Z,35.50
2019-01-11T19:00:22.593Z,37.03
2019-01-11T19:02:53.422Z,37.00
2019-01-11T19:05:25.423Z,37.07
2019-01-11T19:07:56.335Z,31.67
2019-01-11T19:10:27.052Z,33.20
2019-01-11T19:13:00.988Z,38.07
2019-01-11T19:15:32.586Z,36.83
2019-01-11T19:18:06.569Z,35.23
2019-01-11T19:20:45.479Z,31.27
2019-01-11T19:23:20.619Z,40.47
2019-01-11T19:25:51.610Z,34.00
2019-01-11T19:28:22.374Z,30.47
2019-01-11T19:30:53.075Z,27.40
2019-01-11T19:33:24.645Z,25.23
2019-01-11T19:35:56.416Z,22.70
2019-01-11T19:38:27.802Z,26.90
2019-01-11T19:41:06.492Z,23.63
2019-01-11T19:43:40.217Z,27.23
2019-01-11T19:46:15.337Z,25.50
2019-01-11T19:48:48.844Z,24.17
2019-01-11T19:51:29.330Z,21.53
2019-01-11T19:54:01.163Z,21.13
2019-01-11T19:56:44.856Z,17.50
2019-01-11T19:59:15.939Z,20.63
2019-01-11T20:01:46.663Z,14.07
2019-01-11T20:04:18.548Z,20.07
2019-01-11T20:06:55.564Z,18.07
2019-01-11T20:09:29.382Z,19.90
2019-01-11T20:12:00.979Z,18.13
2019-01-11T20:14:38.831Z,21.23
2019-01-11T20:17:14.185Z,18.57
2019-01-11T20:19:46.638Z,20.27
2019-01-11T20:22:24.401Z,22.40
2019-01-11T20:24:57.854Z,19.50
2019-01-11T20:27:33.146Z,18.90
2019-01-11T20:30:04.059Z,18.60
2019-01-11T20:32:35.879Z,20.00
2019-01-11T20:35:09.452Z,19.87
2019-01-11T20:37:44.423Z,17.47
2019-01-11T20:40:21.710Z,16.87
2019-01-11T20:42:55.393Z,18.20
2019-01-11T20:45:32.008Z,17.90
2019-01-11T20:48:06.211Z,15.43
2019-01-11T20:50:42.635Z,15.03
2019-01-11T20:53:13.871Z,14.33
2019-01-11T20:55:48.472Z,15.53
2019-01-11T20:58:27.582Z,12.90
2019-01-11T21:01:10.610Z,14.83
2019-01-11T21:03:44.373Z,14.43
2019-01-11T21:06:20.305Z,14.87
2019-01-11T21:08:55.802Z,14.37
2019-01-11T21:11:31.872Z,12.73
2019-01-11T21:14:09.043Z,15.77
2019-01-11T21:16:44.596Z,12.10
2019-01-11T21:19:23.246Z,16.13
2019-01-11T21:21:55.205Z,12.83
2019-01-11T21:24:26.271Z,14.77
2019-01-11T21:26:57.123Z,14.50
2019-01-11T21:29:32.091Z,14.87
2019-01-11T21:32:02.883Z,16.70
2019-01-11T21:34:35.039Z,17.60
2019-01-11T21:37:07.272Z,16.90
2019-01-11T21:39:38.610Z,16.93
2019-01-11T21:42:09.307Z,17.27
2019-01-11T21:44:40.479Z,15.43
2019-01-11T21:47:13.008Z,15.43
2019-01-11T21:49:44.888Z,16.10
2019-01-11T21:52:17.405Z,17.97
2019-01-11T21:54:48.233Z,14.80
2019-01-11T21:57:18.871Z,15.70
2019-01-11T21:59:49.783Z,15.40
2019-01-11T22:02:20.527Z,15.87
2019-01-11T22:04:51.223Z,17.63
2019-01-11T22:07:21.879Z,20.00
2019-01-11T22:09:52.751Z,21.40
2019-01-11T22:12:23.318Z,15.07
2019-01-11T22:14:54.171Z,14.47
2019-01-11T22:17:24.899Z,17.10
2019-01-11T22:19:55.919Z,17.20
2019-01-11T22:22:26.603Z,17.93
2019-01-11T22:24:57.174Z,19.23
2019-01-11T22:27:27.892Z,17.60
2019-01-11T22:29:58.369Z,18.13
2019-01-11T22:32:28.889Z,14.50
2019-01-11T22:34:59.528Z,15.93
2019-01-11T22:37:30.174Z,13.87
2019-01-11T22:40:00.799Z,16.73
2019-01-11T22:42:31.468Z,15.03
2019-01-11T22:45:02.078Z,18.47
2019-01-11T22:47:32.778Z,19.60
2019-01-11T22:50:03.473Z,19.70
2019-01-11T22:52:34.099Z,21.00
2019-01-11T22:55:05.850Z,18.37
2019-01-11T22:57:36.469Z,18.47
2019-01-11T23:00:36.963Z,18.53
2019-01-11T23:03:16.138Z,21.63
2019-01-11T23:05:47.375Z,22.07
2019-01-11T23:08:21.732Z,17.90
2019-01-11T23:11:26.391Z,18.43
2019-01-11T23:13:57.012Z,19.77
2019-01-11T23:16:44.959Z,20.67
2019-01-11T23:19:15.621Z,21.37
2019-01-11T23:21:46.272Z,19.80
2019-01-11T23:24:17.515Z,20.60
2019-01-11T23:26:48.487Z,20.80
2019-01-11T23:29:19.021Z,20.30
2019-01-11T23:31:49.519Z,19.30
2019-01-11T23:34:20.231Z,18.70
2019-01-11T23:36:50.803Z,20.97
2019-01-11T23:39:21.819Z,21.40
2019-01-11T23:41:52.359Z,22.23
2019-01-11T23:44:23.038Z,23.47
2019-01-11T23:46:53.653Z,24.57
2019-01-11T23:49:24.208Z,24.53
2019-01-11T23:51:54.853Z,25.00
2019-01-11T23:54:25.470Z,24.43
2019-01-11T23:56:56.078Z,26.20
2019-01-11T23:59:26.727Z,23.47
